sensor_id;sensor_type;location;lat;lon;timestamp;P1;durP1;ratioP1;P2;durP2;ratioP2
75634;SDS011;64227;48.724;9.104;2023-04-24T00:00:00;0.95;;;0.60;;
75634;SDS011;64227;48.724;9.104;2023-04-24T00:02:25;0.50;;;0.50;;
75634;SDS011;64227;48.724;9.104;2023-04-24T00:04:50;1.92;;;0.60;;
75634;SDS011;64227;48.724;9.104;2023-04-24T00:07:16;0.55;;;0.52;;
75634;SDS011;64227;48.724;9.104;2023-04-24T00:12:10;0.40;;;0.40;;
75634;SDS011;64227;48.724;9.104;2023-04-24T00:14:35;1.25;;;0.60;;
75634;SDS011;64227;48.724;9.104;2023-04-24T00:17:01;0.77;;;0.50;;
75634;SDS011;64227;48.724;9.104;2023-04-24T00:19:27;0.40;;;0.30;;
75634;SDS011;64227;48.724;9.104;2023-04-24T00:21:53;1.27;;;0.60;;
75634;SDS011;64227;48.724;9.104;2023-04-24T00:24:19;1.20;;;0.50;;
75634;SDS011;64227;48.724;9.104;2023-04-24T00:26:44;0.50;;;0.50;;
75634;SDS011;64227;48.724;9.104;2023-04-24T00:29:09;1.42;;;0.50;;
75634;SDS011;64227;48.724;9.104;2023-04-24T00:31:35;0.70;;;0.40;;
75634;SDS011;64227;48.724;9.104;2023-04-24T00:34:03;0.80;;;0.40;;
75634;SDS011;64227;48.724;9.104;2023-04-24T00:36:29;1.08;;;0.50;;
75634;SDS011;64227;48.724;9.104;2023-04-24T00:38:56;1.40;;;0.70;;
75634;SDS011;64227;48.724;9.104;2023-04-24T00:41:21;0.50;;;0.50;;
75634;SDS011;64227;48.724;9.104;2023-04-24T00:43:47;0.45;;;0.40;;
75634;SDS011;64227;48.724;9.104;2023-04-24T00:46:13;1.55;;;0.50;;
75634;SDS011;64227;48.724;9.104;2023-04-24T00:48:39;0.90;;;0.60;;
75634;SDS011;64227;48.724;9.104;2023-04-24T00:51:04;0.65;;;0.40;;
75634;SDS011;64227;48.724;9.104;2023-04-24T00:53:30;0.50;;;0.47;;
75634;SDS011;64227;48.724;9.104;2023-04-24T00:55:55;1.10;;;0.52;;
75634;SDS011;64227;48.724;9.104;2023-04-24T00:58:21;1.23;;;0.50;;
75634;SDS011;64227;48.724;9.104;2023-04-24T01:00:47;1.05;;;0.50;;
75634;SDS011;64227;48.724;9.104;2023-04-24T01:03:13;0.65;;;0.50;;
75634;SDS011;64227;48.724;9.104;2023-04-24T01:05:39;1.73;;;0.50;;
75634;SDS011;64227;48.724;9.104;2023-04-24T01:08:05;1.25;;;0.50;;
75634;SDS011;64227;48.724;9.104;2023-04-24T01:10:30;0.85;;;0.47;;
75634;SDS011;64227;48.724;9.104;2023-04-24T01:12:58;1.52;;;0.55;;
75634;SDS011;64227;48.724;9.104;2023-04-24T01:15:23;1.13;;;0.70;;
75634;SDS011;64227;48.724;9.104;2023-04-24T01:17:49;2.05;;;0.65;;
75634;SDS011;64227;48.724;9.104;2023-04-24T01:20:15;0.50;;;0.40;;
75634;SDS011;64227;48.724;9.104;2023-04-24T01:22:41;2.47;;;0.70;;
75634;SDS011;64227;48.724;9.104;2023-04-24T01:25:07;1.58;;;0.50;;
75634;SDS011;64227;48.724;9.104;2023-04-24T01:27:32;0.60;;;0.40;;
75634;SDS011;64227;48.724;9.104;2023-04-24T01:29:58;0.85;;;0.50;;
75634;SDS011;64227;48.724;9.104;2023-04-24T01:32:23;0.65;;;0.30;;
75634;SDS011;64227;48.724;9.104;2023-04-24T01:34:49;0.82;;;0.60;;
75634;SDS011;64227;48.724;9.104;2023-04-24T01:37:15;0.70;;;0.70;;
75634;SDS011;64227;48.724;9.104;2023-04-24T01:39:40;1.10;;;0.55;;
75634;SDS011;64227;48.724;9.104;2023-04-24T01:42:05;1.65;;;0.50;;
75634;SDS011;64227;48.724;9.104;2023-04-24T01:44:32;0.70;;;0.60;;
75634;SDS011;64227;48.724;9.104;2023-04-24T01:46:59;0.38;;;0.38;;
75634;SDS011;64227;48.724;9.104;2023-04-24T01:49:25;2.38;;;0.50;;
75634;SDS011;64227;48.724;9.104;2023-04-24T01:51:51;0.95;;;0.50;;
75634;SDS011;64227;48.724;9.104;2023-04-24T01:54:16;1.23;;;0.50;;
75634;SDS011;64227;48.724;9.104;2023-04-24T01:56:42;2.15;;;0.50;;
75634;SDS011;64227;48.724;9.104;2023-04-24T01:59:09;0.40;;;0.40;;
75634;SDS011;64227;48.724;9.104;2023-04-24T02:01:35;0.95;;;0.40;;
75634;SDS011;64227;48.724;9.104;2023-04-24T02:04:01;0.75;;;0.40;;
75634;SDS011;64227;48.724;9.104;2023-04-24T02:06:26;0.70;;;0.45;;
75634;SDS011;64227;48.724;9.104;2023-04-24T02:08:52;0.40;;;0.40;;
75634;SDS011;64227;48.724;9.104;2023-04-24T02:11:17;1.02;;;0.50;;
75634;SDS011;64227;48.724;9.104;2023-04-24T02:13:43;3.35;;;0.75;;
75634;SDS011;64227;48.724;9.104;2023-04-24T02:16:08;1.58;;;0.65;;
75634;SDS011;64227;48.724;9.104;2023-04-24T02:18:34;0.82;;;0.63;;
75634;SDS011;64227;48.724;9.104;2023-04-24T02:20:59;0.90;;;0.55;;
75634;SDS011;64227;48.724;9.104;2023-04-24T02:23:24;1.15;;;0.50;;
75634;SDS011;64227;48.724;9.104;2023-04-24T02:25:50;0.55;;;0.52;;
75634;SDS011;64227;48.724;9.104;2023-04-24T02:28:15;2.15;;;0.57;;
75634;SDS011;64227;48.724;9.104;2023-04-24T02:30:41;0.60;;;0.40;;
75634;SDS011;64227;48.724;9.104;2023-04-24T02:33:06;0.47;;;0.40;;
75634;SDS011;64227;48.724;9.104;2023-04-24T02:35:32;0.50;;;0.50;;
75634;SDS011;64227;48.724;9.104;2023-04-24T02:37:57;0.40;;;0.40;;
75634;SDS011;64227;48.724;9.104;2023-04-24T02:40:22;0.73;;;0.50;;
75634;SDS011;64227;48.724;9.104;2023-04-24T02:42:48;2.88;;;0.50;;
75634;SDS011;64227;48.724;9.104;2023-04-24T02:45:13;1.75;;;0.30;;
75634;SDS011;64227;48.724;9.104;2023-04-24T02:47:38;0.43;;;0.35;;
75634;SDS011;64227;48.724;9.104;2023-04-24T02:50:04;0.53;;;0.30;;
75634;SDS011;64227;48.724;9.104;2023-04-24T02:52:29;1.33;;;0.52;;
75634;SDS011;64227;48.724;9.104;2023-04-24T02:54:55;0.57;;;0.38;;
75634;SDS011;64227;48.724;9.104;2023-04-24T02:57:20;1.67;;;0.50;;
75634;SDS011;64227;48.724;9.104;2023-04-24T02:59:45;0.98;;;0.40;;
75634;SDS011;64227;48.724;9.104;2023-04-24T03:02:11;2.42;;;0.60;;
75634;SDS011;64227;48.724;9.104;2023-04-24T03:04:36;0.50;;;0.50;;
75634;SDS011;64227;48.724;9.104;2023-04-24T03:07:01;0.60;;;0.50;;
75634;SDS011;64227;48.724;9.104;2023-04-24T03:09:27;6.40;;;0.60;;
75634;SDS011;64227;48.724;9.104;2023-04-24T03:11:52;1.88;;;0.57;;
75634;SDS011;64227;48.724;9.104;2023-04-24T03:14:17;2.28;;;0.80;;
75634;SDS011;64227;48.724;9.104;2023-04-24T03:16:43;1.10;;;0.60;;
75634;SDS011;64227;48.724;9.104;2023-04-24T03:19:08;0.40;;;0.40;;
75634;SDS011;64227;48.724;9.104;2023-04-24T03:21:33;0.80;;;0.60;;
75634;SDS011;64227;48.724;9.104;2023-04-24T03:24:00;1.10;;;0.60;;
75634;SDS011;64227;48.724;9.104;2023-04-24T03:26:26;0.80;;;0.50;;
75634;SDS011;64227;48.724;9.104;2023-04-24T03:28:51;0.50;;;0.40;;
75634;SDS011;64227;48.724;9.104;2023-04-24T03:31:16;1.05;;;0.43;;
75634;SDS011;64227;48.724;9.104;2023-04-24T03:33:42;0.60;;;0.50;;
75634;SDS011;64227;48.724;9.104;2023-04-24T03:36:07;1.08;;;0.75;;
75634;SDS011;64227;48.724;9.104;2023-04-24T03:38:32;2.83;;;1.10;;
75634;SDS011;64227;48.724;9.104;2023-04-24T03:40:57;3.42;;;0.77;;
75634;SDS011;64227;48.724;9.104;2023-04-24T03:43:23;0.68;;;0.50;;
75634;SDS011;64227;48.724;9.104;2023-04-24T03:45:48;0.45;;;0.45;;
75634;SDS011;64227;48.724;9.104;2023-04-24T03:48:13;1.38;;;0.50;;
75634;SDS011;64227;48.724;9.104;2023-04-24T03:50:39;0.70;;;0.70;;
75634;SDS011;64227;48.724;9.104;2023-04-24T03:53:04;0.77;;;0.30;;
75634;SDS011;64227;48.724;9.104;2023-04-24T03:55:30;0.73;;;0.40;;
75634;SDS011;64227;48.724;9.104;2023-04-24T03:57:55;1.05;;;0.40;;
75634;SDS011;64227;48.724;9.104;2023-04-24T04:00:20;0.50;;;0.50;;
75634;SDS011;64227;48.724;9.104;2023-04-24T04:02:46;1.88;;;0.70;;
75634;SDS011;64227;48.724;9.104;2023-04-24T04:05:11;0.85;;;0.50;;
75634;SDS011;64227;48.724;9.104;2023-04-24T04:07:36;0.70;;;0.50;;
75634;SDS011;64227;48.724;9.104;2023-04-24T04:10:02;0.63;;;0.60;;
75634;SDS011;64227;48.724;9.104;2023-04-24T04:12:28;0.50;;;0.50;;
75634;SDS011;64227;48.724;9.104;2023-04-24T04:14:53;0.90;;;0.60;;
75634;SDS011;64227;48.724;9.104;2023-04-24T04:17:18;2.65;;;0.47;;
75634;SDS011;64227;48.724;9.104;2023-04-24T04:19:44;0.47;;;0.40;;
75634;SDS011;64227;48.724;9.104;2023-04-24T04:22:09;2.15;;;0.47;;
75634;SDS011;64227;48.724;9.104;2023-04-24T04:24:35;0.80;;;0.50;;
75634;SDS011;64227;48.724;9.104;2023-04-24T04:27:03;3.92;;;0.50;;
75634;SDS011;64227;48.724;9.104;2023-04-24T04:29:29;0.90;;;0.50;;
75634;SDS011;64227;48.724;9.104;2023-04-24T04:31:56;0.57;;;0.55;;
75634;SDS011;64227;48.724;9.104;2023-04-24T04:34:21;1.90;;;0.90;;
75634;SDS011;64227;48.724;9.104;2023-04-24T04:36:47;0.82;;;0.60;;
75634;SDS011;64227;48.724;9.104;2023-04-24T04:39:13;2.47;;;1.05;;
75634;SDS011;64227;48.724;9.104;2023-04-24T04:41:40;0.93;;;0.90;;
75634;SDS011;64227;48.724;9.104;2023-04-24T04:44:05;2.13;;;1.00;;
75634;SDS011;64227;48.724;9.104;2023-04-24T04:46:31;1.38;;;1.00;;
75634;SDS011;64227;48.724;9.104;2023-04-24T04:49:02;1.20;;;0.90;;
75634;SDS011;64227;48.724;9.104;2023-04-24T04:51:28;1.67;;;0.95;;
75634;SDS011;64227;48.724;9.104;2023-04-24T04:53:53;1.17;;;1.00;;
75634;SDS011;64227;48.724;9.104;2023-04-24T04:56:19;0.85;;;0.75;;
75634;SDS011;64227;48.724;9.104;2023-04-24T04:58:44;0.95;;;0.90;;
75634;SDS011;64227;48.724;9.104;2023-04-24T05:01:09;0.80;;;0.70;;
75634;SDS011;64227;48.724;9.104;2023-04-24T05:03:35;0.93;;;0.82;;
75634;SDS011;64227;48.724;9.104;2023-04-24T05:06:00;1.20;;;0.70;;
75634;SDS011;64227;48.724;9.104;2023-04-24T05:08:26;1.00;;;0.90;;
75634;SDS011;64227;48.724;9.104;2023-04-24T05:10:51;1.05;;;0.77;;
75634;SDS011;64227;48.724;9.104;2023-04-24T05:13:16;1.45;;;1.00;;
75634;SDS011;64227;48.724;9.104;2023-04-24T05:15:42;0.82;;;0.77;;
75634;SDS011;64227;48.724;9.104;2023-04-24T05:18:07;1.02;;;0.93;;
75634;SDS011;64227;48.724;9.104;2023-04-24T05:20:32;1.02;;;0.90;;
75634;SDS011;64227;48.724;9.104;2023-04-24T05:22:58;1.67;;;1.10;;
75634;SDS011;64227;48.724;9.104;2023-04-24T05:25:23;4.32;;;1.20;;
75634;SDS011;64227;48.724;9.104;2023-04-24T05:27:48;1.20;;;1.10;;
75634;SDS011;64227;48.724;9.104;2023-04-24T05:30:14;1.25;;;0.90;;
75634;SDS011;64227;48.724;9.104;2023-04-24T05:32:39;1.20;;;0.90;;
75634;SDS011;64227;48.724;9.104;2023-04-24T05:35:04;1.13;;;1.02;;
75634;SDS011;64227;48.724;9.104;2023-04-24T05:37:30;1.45;;;0.70;;
75634;SDS011;64227;48.724;9.104;2023-04-24T05:39:55;1.38;;;1.17;;
75634;SDS011;64227;48.724;9.104;2023-04-24T05:42:21;1.20;;;1.10;;
75634;SDS011;64227;48.724;9.104;2023-04-24T05:44:46;1.23;;;1.13;;
75634;SDS011;64227;48.724;9.104;2023-04-24T05:47:11;0.88;;;0.88;;
75634;SDS011;64227;48.724;9.104;2023-04-24T05:49:37;1.20;;;1.10;;
75634;SDS011;64227;48.724;9.104;2023-04-24T05:52:02;3.63;;;1.10;;
75634;SDS011;64227;48.724;9.104;2023-04-24T05:54:29;1.80;;;0.95;;
75634;SDS011;64227;48.724;9.104;2023-04-24T05:56:54;1.30;;;0.98;;
75634;SDS011;64227;48.724;9.104;2023-04-24T05:59:20;1.08;;;0.98;;
75634;SDS011;64227;48.724;9.104;2023-04-24T06:01:46;1.38;;;1.20;;
75634;SDS011;64227;48.724;9.104;2023-04-24T06:04:16;2.80;;;1.13;;
75634;SDS011;64227;48.724;9.104;2023-04-24T06:06:42;2.13;;;1.27;;
75634;SDS011;64227;48.724;9.104;2023-04-24T06:09:07;1.58;;;1.17;;
75634;SDS011;64227;48.724;9.104;2023-04-24T06:11:33;1.70;;;1.17;;
75634;SDS011;64227;48.724;9.104;2023-04-24T06:13:58;2.28;;;1.48;;
75634;SDS011;64227;48.724;9.104;2023-04-24T06:16:24;1.85;;;1.40;;
75634;SDS011;64227;48.724;9.104;2023-04-24T06:18:49;3.10;;;1.60;;
75634;SDS011;64227;48.724;9.104;2023-04-24T06:21:15;3.20;;;1.75;;
75634;SDS011;64227;48.724;9.104;2023-04-24T06:23:41;2.30;;;1.70;;
75634;SDS011;64227;48.724;9.104;2023-04-24T06:26:06;2.45;;;1.65;;
75634;SDS011;64227;48.724;9.104;2023-04-24T06:28:32;1.70;;;1.58;;
75634;SDS011;64227;48.724;9.104;2023-04-24T06:30:57;2.50;;;1.95;;
75634;SDS011;64227;48.724;9.104;2023-04-24T06:33:22;3.10;;;2.07;;
75634;SDS011;64227;48.724;9.104;2023-04-24T06:35:47;2.55;;;2.03;;
75634;SDS011;64227;48.724;9.104;2023-04-24T06:38:13;1.98;;;1.65;;
75634;SDS011;64227;48.724;9.104;2023-04-24T06:40:38;2.30;;;1.67;;
75634;SDS011;64227;48.724;9.104;2023-04-24T06:43:03;3.47;;;2.00;;
75634;SDS011;64227;48.724;9.104;2023-04-24T06:45:30;2.33;;;1.63;;
75634;SDS011;64227;48.724;9.104;2023-04-24T06:47:55;1.88;;;1.60;;
75634;SDS011;64227;48.724;9.104;2023-04-24T06:50:21;2.58;;;1.33;;
75634;SDS011;64227;48.724;9.104;2023-04-24T06:52:46;2.05;;;1.63;;
75634;SDS011;64227;48.724;9.104;2023-04-24T06:55:12;2.03;;;1.40;;
75634;SDS011;64227;48.724;9.104;2023-04-24T06:57:37;2.17;;;1.67;;
75634;SDS011;64227;48.724;9.104;2023-04-24T07:00:03;1.52;;;1.40;;
75634;SDS011;64227;48.724;9.104;2023-04-24T07:02:30;1.58;;;1.48;;
75634;SDS011;64227;48.724;9.104;2023-04-24T07:04:55;1.73;;;1.40;;
75634;SDS011;64227;48.724;9.104;2023-04-24T07:07:21;2.30;;;1.70;;
75634;SDS011;64227;48.724;9.104;2023-04-24T07:09:48;1.60;;;1.30;;
75634;SDS011;64227;48.724;9.104;2023-04-24T07:12:13;1.48;;;1.38;;
75634;SDS011;64227;48.724;9.104;2023-04-24T07:14:39;1.50;;;1.25;;
75634;SDS011;64227;48.724;9.104;2023-04-24T07:17:05;1.42;;;1.13;;
75634;SDS011;64227;48.724;9.104;2023-04-24T07:19:31;1.65;;;1.30;;
75634;SDS011;64227;48.724;9.104;2023-04-24T07:21:56;1.63;;;1.05;;
75634;SDS011;64227;48.724;9.104;2023-04-24T07:24:23;1.50;;;1.10;;
75634;SDS011;64227;48.724;9.104;2023-04-24T07:26:49;1.30;;;1.20;;
75634;SDS011;64227;48.724;9.104;2023-04-24T07:29:16;1.88;;;1.05;;
75634;SDS011;64227;48.724;9.104;2023-04-24T07:31:41;1.23;;;0.95;;
75634;SDS011;64227;48.724;9.104;2023-04-24T07:34:07;1.42;;;1.20;;
75634;SDS011;64227;48.724;9.104;2023-04-24T07:36:32;1.95;;;1.30;;
75634;SDS011;64227;48.724;9.104;2023-04-24T07:38:57;1.30;;;1.20;;
75634;SDS011;64227;48.724;9.104;2023-04-24T07:41:23;2.90;;;1.30;;
75634;SDS011;64227;48.724;9.104;2023-04-24T07:43:49;1.42;;;1.00;;
75634;SDS011;64227;48.724;9.104;2023-04-24T07:46:14;0.98;;;0.88;;
75634;SDS011;64227;48.724;9.104;2023-04-24T07:48:40;1.15;;;0.88;;
75634;SDS011;64227;48.724;9.104;2023-04-24T07:51:05;0.98;;;0.90;;
75634;SDS011;64227;48.724;9.104;2023-04-24T07:53:30;0.93;;;0.77;;
75634;SDS011;64227;48.724;9.104;2023-04-24T07:55:56;2.10;;;0.90;;
75634;SDS011;64227;48.724;9.104;2023-04-24T07:58:21;0.98;;;0.90;;
75634;SDS011;64227;48.724;9.104;2023-04-24T08:00:46;1.15;;;1.00;;
75634;SDS011;64227;48.724;9.104;2023-04-24T08:03:12;1.67;;;0.95;;
75634;SDS011;64227;48.724;9.104;2023-04-24T08:05:37;2.17;;;1.00;;
75634;SDS011;64227;48.724;9.104;2023-04-24T08:08:03;1.65;;;0.90;;
75634;SDS011;64227;48.724;9.104;2023-04-24T08:10:28;3.17;;;1.00;;
75634;SDS011;64227;48.724;9.104;2023-04-24T08:12:53;3.53;;;0.90;;
75634;SDS011;64227;48.724;9.104;2023-04-24T08:15:20;0.65;;;0.65;;
75634;SDS011;64227;48.724;9.104;2023-04-24T08:17:45;2.05;;;1.20;;
75634;SDS011;64227;48.724;9.104;2023-04-24T08:20:10;1.15;;;0.98;;
75634;SDS011;64227;48.724;9.104;2023-04-24T08:22:39;1.27;;;0.90;;
75634;SDS011;64227;48.724;9.104;2023-04-24T08:25:05;1.13;;;0.90;;
75634;SDS011;64227;48.724;9.104;2023-04-24T08:27:31;0.70;;;0.63;;
75634;SDS011;64227;48.724;9.104;2023-04-24T08:29:57;1.20;;;0.60;;
75634;SDS011;64227;48.724;9.104;2023-04-24T08:32:22;0.75;;;0.70;;
75634;SDS011;64227;48.724;9.104;2023-04-24T08:34:47;1.80;;;0.90;;
75634;SDS011;64227;48.724;9.104;2023-04-24T08:37:13;1.00;;;0.90;;
75634;SDS011;64227;48.724;9.104;2023-04-24T08:39:38;1.55;;;0.88;;
75634;SDS011;64227;48.724;9.104;2023-04-24T08:42:04;0.73;;;0.73;;
75634;SDS011;64227;48.724;9.104;2023-04-24T08:44:32;1.17;;;0.88;;
75634;SDS011;64227;48.724;9.104;2023-04-24T08:46:58;2.47;;;1.10;;
75634;SDS011;64227;48.724;9.104;2023-04-24T08:49:24;1.45;;;0.82;;
75634;SDS011;64227;48.724;9.104;2023-04-24T08:51:50;0.80;;;0.80;;
75634;SDS011;64227;48.724;9.104;2023-04-24T08:54:17;1.00;;;0.90;;
75634;SDS011;64227;48.724;9.104;2023-04-24T08:56:43;1.10;;;0.80;;
75634;SDS011;64227;48.724;9.104;2023-04-24T08:59:09;1.30;;;0.82;;
75634;SDS011;64227;48.724;9.104;2023-04-24T09:01:35;0.60;;;0.60;;
75634;SDS011;64227;48.724;9.104;2023-04-24T09:04:02;2.35;;;1.20;;
75634;SDS011;64227;48.724;9.104;2023-04-24T09:06:28;0.90;;;0.90;;
75634;SDS011;64227;48.724;9.104;2023-04-24T09:08:55;1.88;;;0.88;;
75634;SDS011;64227;48.724;9.104;2023-04-24T09:11:21;1.38;;;1.00;;
75634;SDS011;64227;48.724;9.104;2023-04-24T09:13:49;1.17;;;0.77;;
75634;SDS011;64227;48.724;9.104;2023-04-24T09:16:14;2.70;;;1.05;;
75634;SDS011;64227;48.724;9.104;2023-04-24T09:18:40;2.85;;;1.10;;
75634;SDS011;64227;48.724;9.104;2023-04-24T09:21:08;2.65;;;1.15;;
75634;SDS011;64227;48.724;9.104;2023-04-24T09:23:34;0.90;;;0.82;;
75634;SDS011;64227;48.724;9.104;2023-04-24T09:26:01;1.45;;;0.88;;
75634;SDS011;64227;48.724;9.104;2023-04-24T09:28:31;2.75;;;0.88;;
75634;SDS011;64227;48.724;9.104;2023-04-24T09:33:36;0.80;;;0.80;;
75634;SDS011;64227;48.724;9.104;2023-04-24T09:36:02;0.82;;;0.60;;
75634;SDS011;64227;48.724;9.104;2023-04-24T09:38:34;1.13;;;0.70;;
75634;SDS011;64227;48.724;9.104;2023-04-24T09:41:02;0.52;;;0.52;;
75634;SDS011;64227;48.724;9.104;2023-04-24T09:43:28;2.92;;;0.73;;
75634;SDS011;64227;48.724;9.104;2023-04-24T09:45:57;2.85;;;0.73;;
75634;SDS011;64227;48.724;9.104;2023-04-24T09:48:30;1.05;;;0.73;;
75634;SDS011;64227;48.724;9.104;2023-04-24T09:51:00;0.57;;;0.57;;
75634;SDS011;64227;48.724;9.104;2023-04-24T09:53:26;0.88;;;0.50;;
75634;SDS011;64227;48.724;9.104;2023-04-24T09:55:52;0.68;;;0.65;;
75634;SDS011;64227;48.724;9.104;2023-04-24T09:58:18;0.70;;;0.57;;
75634;SDS011;64227;48.724;9.104;2023-04-24T10:00:49;3.13;;;0.57;;
75634;SDS011;64227;48.724;9.104;2023-04-24T10:03:15;1.38;;;0.60;;
75634;SDS011;64227;48.724;9.104;2023-04-24T10:05:42;1.27;;;0.65;;
75634;SDS011;64227;48.724;9.104;2023-04-24T10:08:11;0.88;;;0.60;;
75634;SDS011;64227;48.724;9.104;2023-04-24T10:10:43;1.10;;;0.60;;
75634;SDS011;64227;48.724;9.104;2023-04-24T10:13:10;0.60;;;0.60;;
75634;SDS011;64227;48.724;9.104;2023-04-24T10:15:36;1.00;;;0.60;;
75634;SDS011;64227;48.724;9.104;2023-04-24T10:18:02;1.10;;;0.57;;
75634;SDS011;64227;48.724;9.104;2023-04-24T10:20:31;0.70;;;0.50;;
75634;SDS011;64227;48.724;9.104;2023-04-24T10:22:57;0.60;;;0.60;;
75634;SDS011;64227;48.724;9.104;2023-04-24T10:25:24;2.15;;;0.60;;
75634;SDS011;64227;48.724;9.104;2023-04-24T10:27:51;0.90;;;0.47;;
75634;SDS011;64227;48.724;9.104;2023-04-24T10:30:20;0.85;;;0.50;;
75634;SDS011;64227;48.724;9.104;2023-04-24T10:32:46;0.95;;;0.50;;
75634;SDS011;64227;48.724;9.104;2023-04-24T10:35:12;1.98;;;0.63;;
75634;SDS011;64227;48.724;9.104;2023-04-24T10:37:39;1.45;;;0.55;;
75634;SDS011;64227;48.724;9.104;2023-04-24T10:40:07;0.73;;;0.50;;
75634;SDS011;64227;48.724;9.104;2023-04-24T10:42:34;1.33;;;0.73;;
75634;SDS011;64227;48.724;9.104;2023-04-24T10:45:04;0.90;;;0.70;;
75634;SDS011;64227;48.724;9.104;2023-04-24T10:47:39;0.65;;;0.57;;
75634;SDS011;64227;48.724;9.104;2023-04-24T10:50:07;0.93;;;0.60;;
75634;SDS011;64227;48.724;9.104;2023-04-24T10:52:44;1.35;;;0.50;;
75634;SDS011;64227;48.724;9.104;2023-04-24T10:55:10;0.75;;;0.57;;
75634;SDS011;64227;48.724;9.104;2023-04-24T10:57:37;1.35;;;0.60;;
75634;SDS011;64227;48.724;9.104;2023-04-24T11:00:10;0.45;;;0.45;;
75634;SDS011;64227;48.724;9.104;2023-04-24T11:02:39;1.65;;;0.50;;
75634;SDS011;64227;48.724;9.104;2023-04-24T11:05:05;0.98;;;0.52;;
75634;SDS011;64227;48.724;9.104;2023-04-24T11:10:34;0.47;;;0.47;;
75634;SDS011;64227;48.724;9.104;2023-04-24T11:13:03;0.60;;;0.60;;
75634;SDS011;64227;48.724;9.104;2023-04-24T11:15:28;2.30;;;1.55;;
75634;SDS011;64227;48.724;9.104;2023-04-24T11:17:55;0.57;;;0.57;;
75634;SDS011;64227;48.724;9.104;2023-04-24T11:20:22;1.08;;;0.60;;
75634;SDS011;64227;48.724;9.104;2023-04-24T11:22:48;0.70;;;0.70;;
75634;SDS011;64227;48.724;9.104;2023-04-24T11:25:17;0.80;;;0.80;;
75634;SDS011;64227;48.724;9.104;2023-04-24T11:27:43;1.17;;;0.80;;
75634;SDS011;64227;48.724;9.104;2023-04-24T11:30:11;0.80;;;0.80;;
75634;SDS011;64227;48.724;9.104;2023-04-24T11:32:37;0.77;;;0.70;;
75634;SDS011;64227;48.724;9.104;2023-04-24T11:35:16;0.52;;;0.52;;
75634;SDS011;64227;48.724;9.104;2023-04-24T11:37:49;0.60;;;0.60;;
75634;SDS011;64227;48.724;9.104;2023-04-24T11:40:16;0.60;;;0.60;;
75634;SDS011;64227;48.724;9.104;2023-04-24T11:42:42;0.60;;;0.60;;
75634;SDS011;64227;48.724;9.104;2023-04-24T11:45:12;0.60;;;0.60;;
75634;SDS011;64227;48.724;9.104;2023-04-24T11:47:39;1.38;;;0.60;;
75634;SDS011;64227;48.724;9.104;2023-04-24T11:50:06;1.00;;;0.70;;
75634;SDS011;64227;48.724;9.104;2023-04-24T11:52:46;1.13;;;0.77;;
75634;SDS011;64227;48.724;9.104;2023-04-24T12:00:15;1.65;;;0.73;;
75634;SDS011;64227;48.724;9.104;2023-04-24T12:02:41;1.00;;;0.70;;
75634;SDS011;64227;48.724;9.104;2023-04-24T12:05:06;2.13;;;0.60;;
75634;SDS011;64227;48.724;9.104;2023-04-24T12:07:36;2.78;;;1.05;;
75634;SDS011;64227;48.724;9.104;2023-04-24T12:10:07;0.82;;;0.80;;
75634;SDS011;64227;48.724;9.104;2023-04-24T12:12:34;1.05;;;0.95;;
75634;SDS011;64227;48.724;9.104;2023-04-24T12:14:59;1.33;;;0.80;;
75634;SDS011;64227;48.724;9.104;2023-04-24T12:17:29;0.65;;;0.65;;
75634;SDS011;64227;48.724;9.104;2023-04-24T12:19:59;1.63;;;1.35;;
75634;SDS011;64227;48.724;9.104;2023-04-24T12:22:26;1.00;;;0.90;;
75634;SDS011;64227;48.724;9.104;2023-04-24T12:25:03;1.02;;;0.80;;
75634;SDS011;64227;48.724;9.104;2023-04-24T12:27:33;1.27;;;0.80;;
75634;SDS011;64227;48.724;9.104;2023-04-24T12:29:59;1.35;;;0.80;;
75634;SDS011;64227;48.724;9.104;2023-04-24T12:32:29;1.80;;;0.90;;
75634;SDS011;64227;48.724;9.104;2023-04-24T12:34:54;1.35;;;0.70;;
75634;SDS011;64227;48.724;9.104;2023-04-24T12:37:21;0.77;;;0.60;;
75634;SDS011;64227;48.724;9.104;2023-04-24T12:40:05;0.82;;;0.82;;
75634;SDS011;64227;48.724;9.104;2023-04-24T12:42:32;1.27;;;0.63;;
75634;SDS011;64227;48.724;9.104;2023-04-24T12:44:58;1.17;;;0.90;;
75634;SDS011;64227;48.724;9.104;2023-04-24T12:47:24;1.10;;;0.80;;
75634;SDS011;64227;48.724;9.104;2023-04-24T12:49:50;0.63;;;0.60;;
75634;SDS011;64227;48.724;9.104;2023-04-24T12:52:17;0.60;;;0.52;;
75634;SDS011;64227;48.724;9.104;2023-04-24T12:54:44;0.70;;;0.65;;
75634;SDS011;64227;48.724;9.104;2023-04-24T12:57:10;1.75;;;0.82;;
75634;SDS011;64227;48.724;9.104;2023-04-24T12:59:35;0.70;;;0.68;;
75634;SDS011;64227;48.724;9.104;2023-04-24T13:02:00;1.08;;;0.70;;
75634;SDS011;64227;48.724;9.104;2023-04-24T13:04:25;0.60;;;0.60;;
75634;SDS011;64227;48.724;9.104;2023-04-24T13:06:51;1.15;;;0.80;;
75634;SDS011;64227;48.724;9.104;2023-04-24T13:09:16;1.10;;;0.93;;
75634;SDS011;64227;48.724;9.104;2023-04-24T13:11:41;1.25;;;0.85;;
75634;SDS011;64227;48.724;9.104;2023-04-24T13:14:07;1.30;;;0.70;;
75634;SDS011;64227;48.724;9.104;2023-04-24T13:16:32;1.00;;;0.75;;
75634;SDS011;64227;48.724;9.104;2023-04-24T13:18:57;5.50;;;1.10;;
75634;SDS011;64227;48.724;9.104;2023-04-24T13:21:23;0.80;;;0.80;;
75634;SDS011;64227;48.724;9.104;2023-04-24T13:23:48;1.70;;;0.77;;
75634;SDS011;64227;48.724;9.104;2023-04-24T13:26:14;0.75;;;0.75;;
75634;SDS011;64227;48.724;9.104;2023-04-24T13:28:39;1.00;;;0.80;;
75634;SDS011;64227;48.724;9.104;2023-04-24T13:31:05;0.68;;;0.68;;
75634;SDS011;64227;48.724;9.104;2023-04-24T13:33:31;1.02;;;0.90;;
75634;SDS011;64227;48.724;9.104;2023-04-24T13:35:56;0.98;;;0.88;;
75634;SDS011;64227;48.724;9.104;2023-04-24T13:38:22;1.10;;;0.98;;
75634;SDS011;64227;48.724;9.104;2023-04-24T13:40:48;1.38;;;0.80;;
75634;SDS011;64227;48.724;9.104;2023-04-24T13:43:13;1.00;;;0.90;;
75634;SDS011;64227;48.724;9.104;2023-04-24T13:45:39;1.02;;;0.80;;
75634;SDS011;64227;48.724;9.104;2023-04-24T13:48:04;1.38;;;0.80;;
75634;SDS011;64227;48.724;9.104;2023-04-24T13:50:29;0.80;;;0.80;;
75634;SDS011;64227;48.724;9.104;2023-04-24T13:52:55;1.95;;;1.05;;
75634;SDS011;64227;48.724;9.104;2023-04-24T13:55:21;0.88;;;0.82;;
75634;SDS011;64227;48.724;9.104;2023-04-24T13:57:47;0.80;;;0.70;;
75634;SDS011;64227;48.724;9.104;2023-04-24T14:00:12;1.10;;;0.90;;
75634;SDS011;64227;48.724;9.104;2023-04-24T14:02:38;1.58;;;0.80;;
75634;SDS011;64227;48.724;9.104;2023-04-24T14:05:03;3.42;;;0.80;;
75634;SDS011;64227;48.724;9.104;2023-04-24T14:07:29;1.00;;;0.95;;
75634;SDS011;64227;48.724;9.104;2023-04-24T14:09:55;1.50;;;1.15;;
75634;SDS011;64227;48.724;9.104;2023-04-24T14:12:20;1.60;;;1.13;;
75634;SDS011;64227;48.724;9.104;2023-04-24T14:14:46;1.92;;;1.08;;
75634;SDS011;64227;48.724;9.104;2023-04-24T14:17:12;1.00;;;0.82;;
75634;SDS011;64227;48.724;9.104;2023-04-24T14:19:38;1.13;;;0.90;;
75634;SDS011;64227;48.724;9.104;2023-04-24T14:22:03;1.48;;;1.20;;
75634;SDS011;64227;48.724;9.104;2023-04-24T14:24:28;0.93;;;0.70;;
75634;SDS011;64227;48.724;9.104;2023-04-24T14:26:54;1.67;;;1.58;;
75634;SDS011;64227;48.724;9.104;2023-04-24T14:29:19;2.88;;;1.10;;
75634;SDS011;64227;48.724;9.104;2023-04-24T14:31:44;1.77;;;1.15;;
75634;SDS011;64227;48.724;9.104;2023-04-24T14:34:10;1.00;;;0.90;;
75634;SDS011;64227;48.724;9.104;2023-04-24T14:36:36;0.98;;;0.88;;
75634;SDS011;64227;48.724;9.104;2023-04-24T14:39:01;1.50;;;1.02;;
75634;SDS011;64227;48.724;9.104;2023-04-24T14:41:31;1.00;;;1.00;;
75634;SDS011;64227;48.724;9.104;2023-04-24T14:43:58;1.90;;;1.00;;
75634;SDS011;64227;48.724;9.104;2023-04-24T14:46:23;1.10;;;1.00;;
75634;SDS011;64227;48.724;9.104;2023-04-24T14:48:49;1.80;;;1.58;;
75634;SDS011;64227;48.724;9.104;2023-04-24T14:51:14;1.05;;;0.90;;
75634;SDS011;64227;48.724;9.104;2023-04-24T14:53:39;1.25;;;1.10;;